Menu Close Menu
Station Historical Data
Daily Summary for May 23, 2017 Units:  English    Metric   Both
« Previous Day
Next Day »
Daily Weekly Monthly Yearly Custom
  High: Low: Average:
Temperature: 73.3 °F 61.2 °F 67.4 °F
Dew Point: 66.0 °F 58.8 °F 63.9 °F
Humidity: 93% 74% 89%
Wind Speed: 1.0mph 0.0mph 0mph
Wind Gust: 5.0mph - -
Wind- - WNW
Pressure: 29.94 in 29.66 in -
Precipitation: 0.73 in    
Historical Graphs
 
 
Tabular Data for May 23, 2017
Time Temperature Dew Point Pressure Wind Wind Speed Wind Gust Humidity Rainfall Rate (Hourly) solar Conditions
00:00 67.9 °F 65.8 °F 29.94 in Calm     93% 0.00 in WeatherDisplay:10.37 W/m2 RA
00:10 67.9 °F 65.8 °F 29.94 in Calm     93% 0.01 in WeatherDisplay:10.37 W/m2 SCT
00:20 67.9 °F 65.8 °F 29.94 in Calm     93% 0.00 in WeatherDisplay:10.37 W/m2 SCT
00:30 67.8 °F 65.7 °F 29.94 in Calm     93% 0.00 in WeatherDisplay:10.37 W/m2 SCT
00:40 67.8 °F 65.7 °F 29.94 in Calm     93% 0.00 in WeatherDisplay:10.37 W/m2 SCT
00:50 67.8 °F 65.7 °F 29.93 in Calm     93% 0.01 in WeatherDisplay:10.37 W/m2 SCT
01:10 67.7 °F 65.6 °F 29.93 in Calm     93% 0.00 in WeatherDisplay:10.37 W/m2 SCT
01:20 67.5 °F 65.4 °F 29.92 in Calm     93% 0.01 in WeatherDisplay:10.37 W/m2 RA
01:30 66.9 °F 64.5 °F 29.92 in Calm     92% 0.00 in WeatherDisplay:10.37 W/m2 SCT
01:40 66.4 °F 64.0 °F 29.91 in Calm     92% 0.00 in WeatherDisplay:10.37 W/m2 SCT
01:50 66.4 °F 64.0 °F 29.91 in Calm     92% 0.00 in WeatherDisplay:10.37 W/m2 SCT
02:00 66.4 °F 64.0 °F 29.90 in Calm     92% 0.00 in WeatherDisplay:10.37 W/m2 SCT
02:10 66.4 °F 64.0 °F 29.89 in Calm     92% 0.00 in WeatherDisplay:10.37 W/m2 SCT
02:20 66.4 °F 64.0 °F 29.89 in Calm     92% 0.00 in WeatherDisplay:10.37 W/m2 SCT
02:30 66.4 °F 64.0 °F 29.89 in Calm     92% 0.00 in WeatherDisplay:10.37 W/m2 SCT
02:40 66.4 °F 64.0 °F 29.89 in Calm     92% 0.00 in WeatherDisplay:10.37 W/m2 SCT
02:50 66.4 °F 64.0 °F 29.89 in Calm     92% 0.00 in WeatherDisplay:10.37 W/m2 SCT
03:00 66.4 °F 64.0 °F 29.88 in Calm     92% 0.00 in WeatherDisplay:10.37 W/m2 SCT
03:10 66.4 °F 64.0 °F 29.88 in Calm     92% 0.00 in WeatherDisplay:10.37 W/m2 SCT
03:20 66.4 °F 64.0 °F 29.88 in Calm     92% 0.00 in WeatherDisplay:10.37 W/m2 SCT
03:30 66.4 °F 64.0 °F 29.87 in Calm     92% 0.00 in WeatherDisplay:10.37 W/m2 SCT
03:40 66.4 °F 64.0 °F 29.87 in Calm     92% 0.00 in WeatherDisplay:10.37 W/m2 SCT
03:50 66.4 °F 64.0 °F 29.86 in Calm     92% 0.00 in WeatherDisplay:10.37 W/m2 SCT
04:00 66.4 °F 64.0 °F 29.86 in Calm     92% 0.00 in WeatherDisplay:10.37 W/m2 SCT
04:10 66.4 °F 64.0 °F 29.86 in Calm     92% 0.00 in WeatherDisplay:10.37 W/m2 SCT
04:20 66.4 °F 64.0 °F 29.85 in Calm     92% 0.00 in WeatherDisplay:10.37 W/m2 SCT
04:30 66.4 °F 64.0 °F 29.85 in Calm     92% 0.00 in WeatherDisplay:10.37 W/m2 SCT
04:40 66.4 °F 64.0 °F 29.85 in Calm     92% 0.00 in WeatherDisplay:10.37 W/m2 SCT
04:50 66.4 °F 64.0 °F 29.85 in Calm     92% 0.00 in WeatherDisplay:10.37 W/m2 SCT
05:00 66.4 °F 64.0 °F 29.85 in Calm     92% 0.00 in WeatherDisplay:10.37 W/m2 SCT
05:10 66.4 °F 64.0 °F 29.85 in Calm     92% 0.00 in WeatherDisplay:10.37 W/m2 SCT
05:20 66.4 °F 64.0 °F 29.85 in Calm     92% 0.00 in WeatherDisplay:10.37 W/m2 SCT
05:30 66.4 °F 64.0 °F 29.84 in Calm     92% 0.00 in WeatherDisplay:10.37 W/m2 SCT
05:40 66.4 °F 64.0 °F 29.84 in Calm     92% 0.00 in WeatherDisplay:10.37 W/m2 SCT
05:50 66.4 °F 64.0 °F 29.83 in Calm     92% 0.00 in WeatherDisplay:10.37 W/m2 SCT
06:00 66.4 °F 64.0 °F 29.83 in Calm     92% 0.00 in WeatherDisplay:10.37 W/m2 SCT
06:10 66.4 °F 64.0 °F 29.83 in Calm     92% 0.00 in WeatherDisplay:10.37 W/m2 SCT
06:20 66.4 °F 64.0 °F 29.83 in Calm     92% 0.00 in WeatherDisplay:10.37 W/m2 SCT
06:30 66.4 °F 64.0 °F 29.83 in Calm     92% 0.00 in WeatherDisplay:10.37 W/m2 SCT
06:40 66.4 °F 64.0 °F 29.83 in Calm     92% 0.00 in WeatherDisplay:10.37 W/m2 SCT
06:50 66.4 °F 64.0 °F 29.83 in Calm     92% 0.00 in WeatherDisplay:10.37 W/m2 SCT
07:00 66.4 °F 64.0 °F 29.84 in Calm     92% 0.00 in WeatherDisplay:10.37 W/m2 SCT
07:10 66.4 °F 64.0 °F 29.83 in Calm     92% 0.00 in WeatherDisplay:10.37 W/m2 SCT
07:20 66.4 °F 64.0 °F 29.84 in Calm     92% 0.00 in WeatherDisplay:10.37 W/m2 SCT
07:30 66.4 °F 64.0 °F 29.84 in Calm     92% 0.00 in WeatherDisplay:10.37 W/m2 SCT
07:40 66.4 °F 64.0 °F 29.84 in Calm     92% 0.00 in WeatherDisplay:10.37 W/m2 SCT
07:50 66.4 °F 64.0 °F 29.84 in Calm     92% 0.00 in WeatherDisplay:10.37 W/m2 SCT
08:00 66.4 °F 64.0 °F 29.83 in Calm     92% 0.00 in WeatherDisplay:10.37 W/m2 SCT
08:10 66.4 °F 64.0 °F 29.83 in Calm     92% 0.00 in WeatherDisplay:10.37 W/m2 SCT
08:20 66.4 °F 64.0 °F 29.83 in Calm     92% 0.00 in WeatherDisplay:10.37 W/m2 SCT
08:30 66.4 °F 64.0 °F 29.83 in Calm     92% 0.00 in WeatherDisplay:10.37 W/m2 SCT
08:40 66.4 °F 64.0 °F 29.83 in Calm     92% 0.00 in WeatherDisplay:10.37 W/m2 SCT
08:50 66.4 °F 64.0 °F 29.83 in Calm     92% 0.00 in WeatherDisplay:10.37 W/m2 SCT
09:00 66.4 °F 64.0 °F 29.83 in Calm     92% 0.00 in WeatherDisplay:10.37 W/m2 SCT
09:10 66.4 °F 64.0 °F 29.83 in Calm     92% 0.00 in WeatherDisplay:10.37 W/m2 SCT
09:20 66.4 °F 64.0 °F 29.82 in Calm     92% 0.00 in WeatherDisplay:10.37 W/m2 SCT
09:30 66.4 °F 64.0 °F 29.82 in Calm     92% 0.00 in WeatherDisplay:10.37 W/m2 SCT
09:40 66.4 °F 64.0 °F 29.81 in Calm     92% 0.00 in WeatherDisplay:10.37 W/m2 SCT
09:50 66.4 °F 64.0 °F 29.81 in Calm     92% 0.00 in WeatherDisplay:10.37 W/m2 SCT
10:00 66.4 °F 64.0 °F 29.81 in Calm     92% 0.00 in WeatherDisplay:10.37 W/m2 SCT
10:10 66.4 °F 64.0 °F 29.82 in Calm     92% 0.00 in WeatherDisplay:10.37 W/m2 SCT
10:20 66.4 °F 64.0 °F 29.82 in Calm     92% 0.00 in WeatherDisplay:10.37 W/m2 SCT
10:30 66.4 °F 64.0 °F 29.82 in Calm     92% 0.00 in WeatherDisplay:10.37 W/m2 SCT
10:40 66.4 °F 64.0 °F 29.82 in Calm     92% 0.00 in WeatherDisplay:10.37 W/m2 SCT
10:50 66.4 °F 64.0 °F 29.82 in Calm     92% 0.00 in WeatherDisplay:10.37 W/m2 SCT
11:00 66.4 °F 64.0 °F 29.82 in Calm     92% 0.00 in WeatherDisplay:10.37 W/m2 SCT
11:20 66.4 °F 64.0 °F 29.82 in Calm     92% 0.00 in WeatherDisplay:10.37 W/m2 SCT
11:30 66.4 °F 64.0 °F 29.81 in Calm     92% 0.00 in WeatherDisplay:10.37 W/m2 SCT
11:40 66.4 °F 64.0 °F 29.81 in Calm     92% 0.00 in WeatherDisplay:10.37 W/m2 SCT
11:50 66.4 °F 64.0 °F 29.81 in Calm     92% 0.00 in WeatherDisplay:10.37 W/m2 SCT
12:00 66.4 °F 64.0 °F 29.81 in Calm     92% 0.00 in WeatherDisplay:10.37 W/m2 SCT
12:10 66.4 °F 64.0 °F 29.81 in Calm     92% 0.00 in WeatherDisplay:10.37 W/m2 SCT
12:20 66.4 °F 64.0 °F 29.81 in Calm     92% 0.00 in WeatherDisplay:10.37 W/m2 SCT
12:30 66.4 °F 64.0 °F 29.80 in Calm     92% 0.00 in WeatherDisplay:10.37 W/m2 SCT
12:40 66.4 °F 64.0 °F 29.80 in Calm     92% 0.00 in WeatherDisplay:10.37 W/m2 SCT
12:50 66.4 °F 64.0 °F 29.78 in Calm     92% 0.00 in WeatherDisplay:10.37 W/m2 SCT
13:00 66.4 °F 64.0 °F 29.78 in Calm     92% 0.00 in WeatherDisplay:10.37 W/m2 SCT
13:10 66.4 °F 64.0 °F 29.77 in Calm     92% 0.00 in WeatherDisplay:10.37 W/m2 SCT
13:20 66.4 °F 64.0 °F 29.78 in Calm     92% 0.00 in WeatherDisplay:10.37 W/m2 SCT
13:30 66.4 °F 64.0 °F 29.76 in Calm     92% 0.00 in WeatherDisplay:10.37 W/m2 SCT
13:40 66.6 °F 64.5 °F 29.75 in Calm     93% 0.00 in WeatherDisplay:10.37 W/m2 SCT
13:50 67.0 °F 64.9 °F 29.74 in Calm     93% 0.00 in WeatherDisplay:10.37 W/m2 SCT
14:00 67.1 °F 64.7 °F 29.74 in Calm   1.0 mph 92% 0.00 in WeatherDisplay:10.37 W/m2 SCT
14:10 67.5 °F 64.8 °F 29.73 in Calm     91% 0.00 in WeatherDisplay:10.37 W/m2 SCT
14:20 68.1 °F 65.0 °F 29.73 in Calm   2.0 mph 90% 0.00 in WeatherDisplay:10.37 W/m2 SCT
14:30 68.5 °F 65.2 °F 29.73 in Calm   2.0 mph 89% 0.00 in WeatherDisplay:10.37 W/m2 SCT
14:40 69.6 °F 65.9 °F 29.74 in Calm   1.0 mph 88% 0.00 in WeatherDisplay:10.37 W/m2 SCT
14:50 69.9 °F 64.8 °F 29.73 in Calm   2.0 mph 84% 0.00 in WeatherDisplay:10.37 W/m2 SCT
15:00 70.6 °F 65.5 °F 29.73 in Calm   1.0 mph 84% 0.00 in WeatherDisplay:10.37 W/m2 SCT
15:10 71.2 °F 65.4 °F 29.73 in Calm   1.0 mph 82% 0.00 in WeatherDisplay:10.37 W/m2 SCT
15:20 71.5 °F 65.7 °F 29.72 in Calm   1.0 mph 82% 0.00 in WeatherDisplay:10.37 W/m2 SCT
15:30 71.7 °F 64.8 °F 29.72 in Calm   1.0 mph 79% 0.00 in WeatherDisplay:10.37 W/m2 SCT
15:40 72.4 °F 64.8 °F 29.72 in Calm   2.0 mph 77% 0.00 in WeatherDisplay:10.37 W/m2 SCT
15:50 72.7 °F 64.3 °F 29.72 in Calm   2.0 mph 75% 0.00 in WeatherDisplay:10.37 W/m2 SCT
16:00 72.6 °F 63.8 °F 29.71 in Calm   1.0 mph 74% 0.00 in WeatherDisplay:10.37 W/m2 SCT
16:10 72.2 °F 65.0 °F 29.72 in Calm   1.0 mph 78% 0.00 in WeatherDisplay:10.37 W/m2 SCT
16:20 72.0 °F 65.8 °F 29.72 in Calm   1.0 mph 81% 0.00 in WeatherDisplay:10.37 W/m2 SCT
16:30 72.5 °F 65.2 °F 29.71 in Calm   1.0 mph 78% 0.00 in WeatherDisplay:10.37 W/m2 SCT
16:40 72.3 °F 65.1 °F 29.70 in Calm   1.0 mph 78% 0.00 in WeatherDisplay:10.37 W/m2 SCT
16:50 72.4 °F 65.2 °F 29.70 in Calm   2.0 mph 78% 0.00 in WeatherDisplay:10.37 W/m2 SCT
17:00 73.3 °F 66.0 °F 29.69 in Calm   1.0 mph 78% 0.00 in WeatherDisplay:10.37 W/m2 SCT
17:10 73.0 °F 65.0 °F 29.69 in Calm   2.0 mph 76% 0.00 in WeatherDisplay:10.37 W/m2 SCT
17:20 72.7 °F 65.1 °F 29.69 in Calm   1.0 mph 77% 0.00 in WeatherDisplay:10.37 W/m2 SCT
17:30 72.7 °F 64.7 °F 29.68 in Calm   1.0 mph 76% 0.00 in WeatherDisplay:10.37 W/m2 SCT
17:40 72.4 °F 64.8 °F 29.68 in Calm   1.0 mph 77% 0.00 in WeatherDisplay:10.37 W/m2 SCT
17:50 72.4 °F 65.2 °F 29.67 in Calm   2.0 mph 78% 0.00 in WeatherDisplay:10.37 W/m2 SCT
18:00 72.4 °F 65.5 °F 29.67 in Calm     79% 0.00 in WeatherDisplay:10.37 W/m2 SCT
18:10 71.9 °F 65.4 °F 29.66 in Calm   1.0 mph 80% 0.00 in WeatherDisplay:10.37 W/m2 SCT
18:20 71.4 °F 64.9 °F 29.67 in Calm     80% 0.00 in WeatherDisplay:10.37 W/m2 SCT
18:30 71.6 °F 65.1 °F 29.67 in Calm   1.0 mph 80% 0.00 in WeatherDisplay:10.37 W/m2 SCT
18:40 71.5 °F 65.0 °F 29.67 in Calm     80% 0.00 in WeatherDisplay:10.37 W/m2 SCT
18:50 71.1 °F 65.0 °F 29.67 in Calm     81% 0.00 in WeatherDisplay:10.37 W/m2 SCT
19:00 70.8 °F 65.0 °F 29.67 in Calm     82% 0.00 in WeatherDisplay:10.37 W/m2 SCT
19:10 70.4 °F 64.7 °F 29.67 in Calm     82% 0.00 in WeatherDisplay:10.37 W/m2 SCT
19:20 70.3 °F 64.9 °F 29.67 in Calm     83% 0.00 in WeatherDisplay:10.37 W/m2 SCT
19:30 70.0 °F 64.2 °F 29.67 in Calm     82% 0.00 in WeatherDisplay:10.37 W/m2 SCT
19:40 69.7 °F 64.0 °F 29.67 in Calm     82% 0.00 in WeatherDisplay:10.37 W/m2 SCT
19:50 69.4 °F 63.7 °F 29.68 in Calm     82% 0.00 in WeatherDisplay:10.37 W/m2 SCT
20:00 69.3 °F 64.3 °F 29.68 in Calm     84% 0.00 in WeatherDisplay:10.37 W/m2 SCT
20:10 69.2 °F 64.2 °F 29.68 in Calm     84% 0.00 in WeatherDisplay:10.37 W/m2 SCT
20:20 69.2 °F 64.2 °F 29.68 in Calm   1.0 mph 84% 0.00 in WeatherDisplay:10.37 W/m2 SCT
20:30 69.1 °F 64.1 °F 29.68 in Calm     84% 0.00 in WeatherDisplay:10.37 W/m2 SCT
20:40 68.9 °F 63.8 °F 29.68 in Calm     84% 0.00 in WeatherDisplay:10.37 W/m2 SCT
20:50 68.7 °F 64.0 °F 29.67 in Calm     85% 0.00 in WeatherDisplay:10.37 W/m2 SCT
21:00 68.6 °F 64.2 °F 29.67 in Calm     86% 0.00 in WeatherDisplay:10.37 W/m2 SCT
21:10 68.7 °F 64.3 °F 29.70 in Calm     86% 0.00 in WeatherDisplay:10.37 W/m2 SCT
21:20 67.9 °F 63.2 °F 29.72 in West 1.0 mph 5.0 mph 85% 0.02 in WeatherDisplay:10.37 W/m2 RA
21:30 64.0 °F 59.7 °F 29.72 in Calm   5.0 mph 86% 0.11 in WeatherDisplay:10.37 W/m2 RA
21:40 62.6 °F 59.3 °F 29.71 in Calm   1.0 mph 89% 0.09 in WeatherDisplay:10.37 W/m2 RA
21:50 62.0 °F 59.0 °F 29.70 in Calm     90% 0.04 in WeatherDisplay:10.37 W/m2 RA
22:00 61.8 °F 59.1 °F 29.71 in Calm     91% 0.00 in WeatherDisplay:10.37 W/m2 SCT
22:10 61.8 °F 59.1 °F 29.71 in Calm   1.0 mph 91% 0.01 in WeatherDisplay:10.37 W/m2 RA
22:20 61.8 °F 59.5 °F 29.75 in Calm     92% 0.02 in WeatherDisplay:10.37 W/m2 RA
22:30 61.8 °F 59.5 °F 29.72 in Calm   1.0 mph 92% 0.09 in WeatherDisplay:10.37 W/m2 RA
22:40 61.5 °F 59.2 °F 29.71 in Calm   1.0 mph 92% 0.10 in WeatherDisplay:10.37 W/m2 RA
22:50 61.3 °F 59.0 °F 29.70 in Calm     92% 0.07 in WeatherDisplay:10.37 W/m2 RA
23:00 61.2 °F 58.9 °F 29.70 in Calm   1.0 mph 92% 0.04 in WeatherDisplay:10.37 W/m2 SCT
23:10 61.2 °F 58.8 °F 29.72 in Calm   1.0 mph 92% 0.03 in WeatherDisplay:10.37 W/m2 RA
23:20 61.2 °F 59.2 °F 29.71 in Calm     93% 0.01 in WeatherDisplay:10.37 W/m2 SCT
23:30 61.3 °F 59.3 °F 29.72 in Calm   1.0 mph 93% 0.03 in WeatherDisplay:10.37 W/m2 RA
23:40 61.3 °F 59.3 °F 29.70 in Calm     93% 0.01 in WeatherDisplay:10.37 W/m2 SCT
23:50 61.3 °F 59.3 °F 29.70 in Calm     93% 0.00 in WeatherDisplay:10.37 W/m2 SCT
Piedmont Bend
Compliments of Weather Underground - 4 mb